Terminal Aerodrome Forecast
Issued by NWS Blacksburg, VA

Home | Current Version | Previous Version | Text Only | Print | Product List | Glossary On
Versions: 1 2 3 4 5 6 7 8 9 10 11 12 13 14 15 16 17 18 19 20 21 22 23 24 25 26 27 28 29 30 31 32 33 34 35
641
FTUS41 KRNK 061723
TAFBLF
TAF
KBLF 061723Z 0618/0718 13013G26KT 6SM -RA BR SCT006 BKN015
      TEMPO 0618/0620 4SM -RA SCT015 OVC030
     FM062100 16008KT 3SM -RA BR OVC007
     FM070200 28007KT 4SM -DZ BR OVC005
     FM070600 29009G18KT 2SM -DZ BR OVC003
     FM071200 30008KT P6SM SCT007 OVC015=

USA.gov is the U.S. government's official web portal to all federal, state and local government web resources and services.